Time;durP1;ratioP1;P1;durP2;ratioP2;P2;SDS_P1;SDS_P2;PMS_P1;PMS_P2;Temp;Humidity;BMP_temperature;BMP_pressure;BME280_temperature;BME280_humidity;BME280_pressure;Samples;Min_cycle;Max_cycle;Signal;HPM_P1;HPM_P2
2023/05/11 00:01:18;;;;;;;21.70;14.10;;;13.70;99.90;;;;;;5055571;28;20204;-70
2023/05/11 00:03:44;;;;;;;22.73;14.67;;;13.70;99.90;;;;;;5055409;28;20631;-69
2023/05/11 00:06:09;;;;;;;19.50;12.87;;;13.70;99.90;;;;;;5054978;28;20177;-69
2023/05/11 00:08:36;;;;;;;20.67;14.43;;;13.80;99.90;;;;;;5055252;28;20268;-70
2023/05/11 00:11:01;;;;;;;23.17;13.90;;;13.80;99.90;;;;;;5055436;28;20177;-69
2023/05/11 00:13:27;;;;;;;22.87;13.33;;;13.80;99.90;;;;;;5055384;28;20576;-69
2023/05/11 00:15:53;;;;;;;15.90;12.03;;;13.70;99.90;;;;;;5055056;28;20265;-69
2023/05/11 00:18:19;;;;;;;20.83;11.90;;;13.70;99.90;;;;;;5055072;28;20625;-69
2023/05/11 00:20:45;;;;;;;17.63;12.50;;;13.70;99.90;;;;;;5054424;28;20225;-69
2023/05/11 00:23:10;;;;;;;16.47;12.07;;;13.70;99.90;;;;;;5055081;28;20169;-70
2023/05/11 00:25:36;;;;;;;18.43;12.53;;;13.70;99.90;;;;;;5054984;28;20173;-69
2023/05/11 00:28:02;;;;;;;17.63;11.20;;;13.70;99.90;;;;;;5055079;28;20631;-70
2023/05/11 00:30:27;;;;;;;18.97;11.70;;;13.90;99.90;;;;;;5054901;28;20625;-70
2023/05/11 00:32:53;;;;;;;16.40;10.60;;;13.90;99.90;;;;;;5054904;28;20181;-70
2023/05/11 00:35:18;;;;;;;17.03;10.83;;;13.90;99.90;;;;;;5054388;28;20254;-70
2023/05/11 00:37:44;;;;;;;17.77;11.07;;;13.90;99.90;;;;;;5054788;28;20170;-69
2023/05/11 00:40:10;;;;;;;13.20;9.90;;;14.00;99.90;;;;;;5054788;28;20200;-70
2023/05/11 00:42:36;;;;;;;18.00;9.30;;;13.90;99.90;;;;;;5054809;28;20174;-69
2023/05/11 00:45:01;;;;;;;17.70;10.53;;;13.90;99.90;;;;;;5054649;28;20659;-70
2023/05/11 00:47:27;;;;;;;15.53;9.50;;;13.90;99.90;;;;;;5054574;28;20174;-70
2023/05/11 00:49:53;;;;;;;13.20;8.80;;;13.80;99.90;;;;;;5054238;28;20177;-70
2023/05/11 00:52:20;;;;;;;13.07;8.63;;;13.70;99.90;;;;;;5054634;28;20180;-70
2023/05/11 00:54:47;;;;;;;17.13;9.10;;;13.80;99.90;;;;;;5054337;28;20209;-70
2023/05/11 00:57:13;;;;;;;14.33;8.60;;;13.80;99.90;;;;;;5054571;28;20199;-69
2023/05/11 00:59:39;;;;;;;16.43;10.23;;;13.80;99.90;;;;;;5054433;28;20180;-69
2023/05/11 01:02:05;;;;;;;16.33;8.27;;;13.70;99.90;;;;;;5054420;28;20174;-69
2023/05/11 01:04:32;;;;;;;14.43;8.73;;;13.80;99.90;;;;;;5053868;28;20511;-70
2023/05/11 01:07:10;;;;;;;16.37;8.90;;;13.70;99.90;;;;;;5036237;28;20184;-69
2023/05/11 01:09:55;;;;;;;10.07;8.50;;;13.60;99.90;;;;;;5054265;28;20173;-68
2023/05/11 01:12:30;;;;;;;13.87;8.83;;;13.70;99.90;;;;;;5054135;28;20177;-70
2023/05/11 01:15:02;;;;;;;13.13;8.30;;;13.60;99.90;;;;;;5054044;28;20197;-70
2023/05/11 01:18:00;;;;;;;19.40;9.40;;;13.60;99.90;;;;;;5053309;28;20668;-71
2023/05/11 01:20:28;;;;;;;15.30;8.30;;;13.50;99.90;;;;;;5013635;28;20228;-70
2023/05/11 01:23:06;;;;;;;16.10;9.07;;;13.50;99.90;;;;;;5053973;28;20173;-70
2023/05/11 01:26:03;;;;;;;15.07;7.73;;;13.50;99.90;;;;;;5053845;28;20230;-70
2023/05/11 01:28:37;;;;;;;16.23;7.40;;;13.40;99.90;;;;;;5053919;28;20173;-70
2023/05/11 01:31:11;;;;;;;15.10;7.47;;;13.30;99.90;;;;;;5053868;28;20255;-70
2023/05/11 01:33:46;;;;;;;14.80;7.67;;;13.30;99.90;;;;;;5053582;28;20201;-70
2023/05/11 01:36:13;;;;;;;20.30;8.63;;;13.20;99.90;;;;;;5053521;28;20286;-70
2023/05/11 01:38:44;;;;;;;16.63;8.07;;;13.20;99.90;;;;;;5053769;28;20173;-69
2023/05/11 01:41:22;;;;;;;17.07;7.80;;;13.20;99.90;;;;;;5053788;28;20217;-69
2023/05/11 01:43:53;;;;;;;15.90;7.70;;;13.10;99.90;;;;;;5053618;28;20169;-70
2023/05/11 01:46:23;;;;;;;18.03;7.83;;;13.10;99.90;;;;;;5035864;28;20169;-69
2023/05/11 01:48:51;;;;;;;15.77;7.40;;;13.10;99.90;;;;;;5052770;28;20197;-69
2023/05/11 01:51:18;;;;;;;17.43;7.50;;;13.20;99.90;;;;;;5053464;28;20219;-69
2023/05/11 01:53:45;;;;;;;17.03;7.17;;;13.20;99.90;;;;;;5053467;28;20256;-70
2023/05/11 01:56:11;;;;;;;15.40;8.17;;;13.10;99.90;;;;;;5053415;28;20358;-69
2023/05/11 01:58:39;;;;;;;16.10;8.10;;;13.10;99.90;;;;;;5053295;28;20173;-69
2023/05/11 02:01:05;;;;;;;14.97;8.40;;;13.20;99.90;;;;;;5053257;28;20169;-70
2023/05/11 02:03:33;;;;;;;15.97;7.50;;;13.20;99.90;;;;;;5053301;28;20165;-70
2023/05/11 02:06:00;;;;;;;19.93;8.23;;;13.20;99.90;;;;;;5053384;28;20662;-69
2023/05/11 02:08:29;;;;;;;17.53;7.73;;;13.00;99.90;;;;;;5053101;28;20195;-70
2023/05/11 02:10:56;;;;;;;19.93;8.50;;;13.00;99.90;;;;;;5053243;28;20183;-70
2023/05/11 02:13:23;;;;;;;17.67;7.43;;;13.00;99.90;;;;;;5053105;28;20157;-70
2023/05/11 02:15:52;;;;;;;17.10;7.87;;;13.00;99.90;;;;;;5052423;28;20243;-70
2023/05/11 02:18:19;;;;;;;18.77;7.40;;;13.00;99.90;;;;;;5052962;28;20173;-69
2023/05/11 02:20:46;;;;;;;18.63;7.37;;;12.90;99.90;;;;;;5052445;28;20279;-69
2023/05/11 02:23:14;;;;;;;20.37;7.03;;;12.90;99.90;;;;;;5053130;28;20231;-69
2023/05/11 02:25:40;;;;;;;22.90;7.33;;;12.70;99.90;;;;;;5053133;28;20177;-69
2023/05/11 02:28:07;;;;;;;19.13;7.43;;;12.80;99.90;;;;;;5052965;28;20180;-68
2023/05/11 02:30:39;;;;;;;12.83;6.53;;;12.80;99.90;;;;;;5052630;28;20240;-69
2023/05/11 02:33:08;;;;;;;16.07;6.70;;;12.70;99.90;;;;;;5053073;28;20169;-70
2023/05/11 02:35:39;;;;;;;23.53;6.93;;;12.70;99.90;;;;;;5053005;28;20307;-68
2023/05/11 02:38:07;;;;;;;23.17;7.70;;;12.70;99.90;;;;;;5035007;28;20171;-69
2023/05/11 02:40:39;;;;;;;16.10;7.17;;;12.80;99.90;;;;;;5052714;28;20170;-69
2023/05/11 02:43:11;;;;;;;20.37;7.23;;;12.80;99.90;;;;;;5035082;28;20242;-68
2023/05/11 02:45:40;;;;;;;20.93;7.67;;;12.60;99.90;;;;;;5052515;28;20211;-70
2023/05/11 02:48:08;;;;;;;21.00;7.40;;;12.50;99.90;;;;;;5052794;28;20173;-69
2023/05/11 02:50:40;;;;;;;18.33;7.03;;;12.60;99.90;;;;;;5052586;28;20207;-68
2023/05/11 02:53:13;;;;;;;22.63;7.63;;;12.60;99.90;;;;;;5052910;28;20165;-68
2023/05/11 02:55:40;;;;;;;24.37;8.40;;;12.50;99.90;;;;;;5052745;28;20274;-68
2023/05/11 02:58:06;;;;;;;22.40;7.77;;;12.50;99.90;;;;;;5052719;28;20183;-70
2023/05/11 03:00:32;;;;;;;16.83;6.73;;;12.40;99.90;;;;;;5054769;28;20169;-70
2023/05/11 03:02:58;;;;;;;17.43;7.97;;;12.40;99.90;;;;;;5056564;28;20173;-68
2023/05/11 03:05:24;;;;;;;26.90;8.30;;;12.40;99.90;;;;;;5056676;28;20181;-69
2023/05/11 03:07:52;;;;;;;19.57;7.93;;;12.30;99.90;;;;;;5056222;28;20633;-69
2023/05/11 03:10:18;;;;;;;24.40;8.83;;;12.20;99.90;;;;;;5056267;28;20181;-69
2023/05/11 03:12:44;;;;;;;23.93;9.80;;;12.20;99.90;;;;;;5056347;28;20180;-69
2023/05/11 03:15:11;;;;;;;21.63;9.30;;;12.20;99.90;;;;;;5055778;28;20228;-69
2023/05/11 03:17:37;;;;;;;19.67;9.63;;;12.20;99.90;;;;;;5056082;28;20197;-68
2023/05/11 03:20:04;;;;;;;22.80;9.57;;;12.20;99.90;;;;;;5055275;28;20221;-68
2023/05/11 03:22:31;;;;;;;20.37;9.30;;;12.20;99.90;;;;;;5055834;28;20223;-69
2023/05/11 03:24:57;;;;;;;22.47;9.70;;;12.20;99.90;;;;;;5056190;28;20169;-69
2023/05/11 03:27:24;;;;;;;22.13;9.50;;;12.20;99.90;;;;;;5038182;28;20636;-68
2023/05/11 03:29:52;;;;;;;20.23;9.83;;;12.20;99.90;;;;;;5055105;28;20191;-69
2023/05/11 03:32:17;;;;;;;22.40;10.17;;;12.40;99.90;;;;;;5055626;28;20157;-69
2023/05/11 03:34:43;;;;;;;28.30;10.40;;;12.30;99.90;;;;;;5055485;28;20339;-70
2023/05/11 03:37:11;;;;;;;26.77;10.83;;;12.30;99.90;;;;;;5055899;28;20181;-70
2023/05/11 03:39:38;;;;;;;22.63;10.80;;;12.40;99.90;;;;;;5055661;28;20170;-69
2023/05/11 03:42:05;;;;;;;34.33;12.30;;;12.40;99.90;;;;;;5055516;28;20199;-70
2023/05/11 03:44:32;;;;;;;24.80;12.03;;;12.30;99.90;;;;;;5055087;28;20169;-69
2023/05/11 03:47:00;;;;;;;24.77;13.20;;;12.30;99.90;;;;;;5055632;28;20683;-70
2023/05/11 03:49:27;;;;;;;26.33;12.60;;;12.30;99.90;;;;;;5055558;28;20212;-68
2023/05/11 03:51:53;;;;;;;31.73;12.73;;;12.40;99.90;;;;;;5055251;28;20225;-70
2023/05/11 03:54:19;;;;;;;26.97;12.30;;;12.40;99.90;;;;;;5054866;28;20486;-69
2023/05/11 03:56:44;;;;;;;25.27;13.63;;;12.40;99.90;;;;;;5055138;28;20223;-70
2023/05/11 03:59:15;;;;;;;35.23;14.63;;;12.40;99.90;;;;;;5054701;28;20258;-69
2023/05/11 04:01:41;;;;;;;29.83;14.53;;;12.40;99.90;;;;;;5055031;28;20176;-70
2023/05/11 04:04:07;;;;;;;27.17;14.97;;;12.30;99.90;;;;;;5055114;28;20158;-69
2023/05/11 04:06:33;;;;;;;29.40;15.00;;;12.40;99.90;;;;;;5055370;28;20284;-69
2023/05/11 04:08:59;;;;;;;25.43;13.40;;;12.40;99.90;;;;;;5055048;28;20184;-68
2023/05/11 04:11:26;;;;;;;30.73;14.97;;;12.30;99.90;;;;;;5053966;28;20666;-68
2023/05/11 04:13:52;;;;;;;33.63;14.77;;;12.30;99.90;;;;;;5054711;28;20184;-68
2023/05/11 04:16:17;;;;;;;24.67;14.07;;;12.40;99.90;;;;;;5054574;28;20232;-69
2023/05/11 04:18:43;;;;;;;31.50;14.60;;;12.40;99.90;;;;;;5054778;28;20184;-68
2023/05/11 04:21:09;;;;;;;26.53;15.53;;;12.40;99.90;;;;;;5054763;28;20224;-70
2023/05/11 04:23:34;;;;;;;26.90;14.83;;;12.40;99.90;;;;;;5054559;28;20173;-69
2023/05/11 04:26:00;;;;;;;32.17;15.50;;;12.40;99.90;;;;;;5054474;28;20177;-68
2023/05/11 04:28:26;;;;;;;31.87;16.87;;;12.30;99.90;;;;;;5054480;28;20177;-69
2023/05/11 04:30:56;;;;;;;26.87;14.80;;;12.40;99.90;;;;;;5054507;28;20474;-69
2023/05/11 04:33:22;;;;;;;28.13;15.20;;;12.40;99.90;;;;;;5054123;28;20185;-70
2023/05/11 04:35:52;;;;;;;31.90;15.93;;;12.50;99.90;;;;;;5054444;28;20205;-69
2023/05/11 04:38:19;;;;;;;31.27;15.77;;;12.50;99.90;;;;;;5054192;28;20201;-69
2023/05/11 04:40:46;;;;;;;29.67;15.60;;;12.50;99.90;;;;;;5054285;28;20173;-70
2023/05/11 04:43:12;;;;;;;26.33;15.13;;;12.50;99.90;;;;;;5054347;28;20177;-72
2023/05/11 04:45:38;;;;;;;26.33;15.67;;;12.60;99.90;;;;;;5054103;28;20166;-70
2023/05/11 04:48:05;;;;;;;31.13;14.70;;;12.60;99.90;;;;;;5053767;28;20169;-70
2023/05/11 04:50:31;;;;;;;28.20;14.83;;;12.70;99.90;;;;;;5053682;28;20181;-70
2023/05/11 04:52:57;;;;;;;31.27;14.70;;;12.70;99.90;;;;;;5054125;28;20170;-70
2023/05/11 04:55:22;;;;;;;27.33;13.33;;;12.70;99.90;;;;;;5053611;28;20216;-71
2023/05/11 04:57:48;;;;;;;26.27;13.57;;;12.70;99.90;;;;;;5053812;28;20185;-69
2023/05/11 05:00:14;;;;;;;24.73;12.97;;;12.50;99.90;;;;;;5053265;28;20173;-70
2023/05/11 05:02:39;;;;;;;23.17;13.27;;;12.60;99.90;;;;;;5053343;28;20707;-70
2023/05/11 05:05:06;;;;;;;23.20;12.70;;;12.60;99.90;;;;;;5053580;28;20253;-69
2023/05/11 05:07:31;;;;;;;19.53;11.17;;;12.70;99.90;;;;;;5053835;28;20165;-69
2023/05/11 05:09:57;;;;;;;25.50;11.43;;;12.60;99.90;;;;;;5053082;28;20238;-69
2023/05/11 05:12:23;;;;;;;24.73;12.97;;;12.70;99.90;;;;;;5053492;28;20520;-69
2023/05/11 05:14:48;;;;;;;20.67;11.17;;;12.80;99.90;;;;;;5053733;28;20270;-69
2023/05/11 05:17:14;;;;;;;20.63;12.27;;;12.80;99.90;;;;;;5053182;28;20224;-70
2023/05/11 05:19:39;;;;;;;19.67;10.83;;;12.80;99.90;;;;;;5052728;28;20231;-69
2023/05/11 05:22:05;;;;;;;17.63;10.67;;;13.00;99.90;;;;;;5052117;28;20327;-70
2023/05/11 05:24:31;;;;;;;19.43;10.27;;;13.20;99.90;;;;;;5052677;28;20177;-70
2023/05/11 05:26:56;;;;;;;19.30;11.03;;;13.50;99.90;;;;;;5053461;28;20644;-70
2023/05/11 05:29:22;;;;;;;18.10;9.80;;;13.90;99.90;;;;;;5052851;28;20233;-69
2023/05/11 05:31:48;;;;;;;14.40;9.20;;;14.10;99.90;;;;;;5053165;28;20574;-70
2023/05/11 05:34:13;;;;;;;18.07;9.57;;;14.40;99.90;;;;;;5053067;28;20187;-70
2023/05/11 05:36:39;;;;;;;16.27;8.57;;;14.60;98.10;;;;;;5052753;28;20655;-70
2023/05/11 05:39:09;;;;;;;15.50;8.57;;;14.90;99.90;;;;;;5052122;28;20177;-69
2023/05/11 05:41:35;;;;;;;14.20;7.20;;;16.00;98.20;;;;;;5052418;28;20295;-69
2023/05/11 05:44:01;;;;;;;12.73;7.05;;;17.50;28.20;;;;;;5052851;28;20201;-68
2023/05/11 05:46:27;;;;;;;14.95;7.40;;;18.20;1.00;;;;;;5052619;28;20247;-69
2023/05/11 05:48:52;;;;;;;13.75;6.82;;;18.40;1.00;;;;;;5052470;28;20177;-68
2023/05/11 05:51:18;;;;;;;13.75;6.60;;;18.40;1.00;;;;;;5052422;28;20176;-69
2023/05/11 05:53:44;;;;;;;13.95;6.65;;;17.80;1.00;;;;;;5051822;28;20228;-70
2023/05/11 05:56:09;;;;;;;10.52;6.45;;;18.00;1.00;;;;;;5051536;28;20209;-71
2023/05/11 05:58:35;;;;;;;10.02;6.25;;;17.90;1.00;;;;;;5052175;28;20554;-70
2023/05/11 06:01:01;;;;;;;12.15;6.18;;;17.50;1.00;;;;;;5052429;28;20247;-70
2023/05/11 06:03:26;;;;;;;14.25;6.70;;;17.00;2.20;;;;;;5052176;28;20169;-71
2023/05/11 06:05:52;;;;;;;12.15;5.82;;;16.80;11.40;;;;;;5051589;28;20172;-70
2023/05/11 06:08:17;;;;;;;13.45;6.47;;;16.70;17.70;;;;;;5051763;28;20690;-69
2023/05/11 06:10:43;;;;;;;9.45;6.88;;;16.50;21.60;;;;;;5051751;28;20272;-69
2023/05/11 06:13:09;;;;;;;12.05;6.57;;;16.50;25.30;;;;;;5052085;28;20623;-70
2023/05/11 06:15:34;;;;;;;12.13;6.30;;;16.20;26.80;;;;;;5051875;28;20200;-70
2023/05/11 06:18:00;;;;;;;10.38;6.60;;;16.40;27.90;;;;;;5051704;28;20189;-70
2023/05/11 06:20:25;;;;;;;13.25;6.88;;;16.70;25.50;;;;;;5050962;28;20275;-69
2023/05/11 06:22:51;;;;;;;14.10;6.35;;;16.50;28.80;;;;;;5051088;28;20249;-71
2023/05/11 06:25:17;;;;;;;12.55;7.15;;;16.90;26.90;;;;;;5051686;28;20165;-69
2023/05/11 06:27:42;;;;;;;14.50;7.20;;;17.30;8.00;;;;;;5052364;28;20170;-69
2023/05/11 06:30:08;;;;;;;14.07;6.53;;;17.60;1.00;;;;;;5033704;28;20169;-70
2023/05/11 06:32:34;;;;;;;12.23;6.10;;;19.00;1.00;;;;;;5051660;28;20237;-68
2023/05/11 06:35:00;;;;;;;13.15;6.40;;;21.10;1.00;;;;;;5054372;28;20201;-69
2023/05/11 06:37:28;;;;;;;8.85;5.88;;;22.40;1.00;;;;;;5055661;28;20181;-69
2023/05/11 06:39:54;;;;;;;11.68;5.85;;;24.30;99.90;;;;;;5055870;28;20613;-70
2023/05/11 06:42:22;;;;;;;8.05;5.63;;;24.30;1.00;;;;;;5054991;28;20195;-69
2023/05/11 06:44:48;;;;;;;13.32;6.13;;;24.40;1.00;;;;;;5055558;28;20173;-69
2023/05/11 06:47:13;;;;;;;9.80;6.40;;;24.20;99.90;;;;;;5055634;28;20169;-71
2023/05/11 06:49:41;;;;;;;11.77;6.63;;;24.30;1.00;;;;;;5055202;28;20165;-70
2023/05/11 06:52:08;;;;;;;12.90;6.60;;;22.70;99.90;;;;;;5055299;28;20188;-69
2023/05/11 06:54:34;;;;;;;9.32;5.90;;;22.30;99.90;;;;;;5055576;28;20247;-71
2023/05/11 06:57:02;;;;;;;9.15;5.97;;;24.20;1.00;;;;;;5055617;28;20613;-70
2023/05/11 06:59:28;;;;;;;11.90;6.03;;;26.00;1.00;;;;;;5054855;28;20192;-69
2023/05/11 07:01:54;;;;;;;9.95;6.20;;;27.00;99.90;;;;;;5058783;28;20185;-70
2023/05/11 07:04:19;;;;;;;10.82;6.10;;;27.30;99.90;;;;;;5055527;28;20170;-70
2023/05/11 07:06:45;;;;;;;9.55;6.10;;;27.50;1.00;;;;;;5055748;28;20496;-69
2023/05/11 07:09:11;;;;;;;6.82;5.95;;;26.00;1.00;;;;;;5055261;28;20177;-69
2023/05/11 07:11:36;;;;;;;9.15;5.80;;;26.20;1.00;;;;;;5051972;28;20173;-70
2023/05/11 07:14:02;;;;;;;7.20;5.70;;;25.00;1.00;;;;;;5055369;28;20655;-71
2023/05/11 07:16:28;;;;;;;10.48;5.28;;;23.90;1.00;;;;;;5055075;28;20501;-70
2023/05/11 07:18:53;;;;;;;7.97;4.82;;;23.20;1.00;;;;;;5065045;28;20177;-70
2023/05/11 07:21:21;;;;;;;7.40;4.80;;;24.40;1.00;;;;;;5074429;28;20780;-71
2023/05/11 07:23:47;;;;;;;9.40;5.38;;;25.50;99.90;;;;;;5074999;28;20164;-70
2023/05/11 07:26:12;;;;;;;11.60;5.30;;;25.30;1.00;;;;;;5074752;28;20170;-69
2023/05/11 07:28:38;;;;;;;5.90;4.63;;;26.40;1.00;;;;;;5074441;28;20644;-72
2023/05/11 07:31:04;;;;;;;10.23;4.80;;;26.60;99.90;;;;;;5056841;28;20183;-73
2023/05/11 07:33:30;;;;;;;9.50;4.72;;;26.40;1.00;;;;;;5070315;28;20535;-71
2023/05/11 07:35:56;;;;;;;7.03;4.68;;;26.20;99.90;;;;;;5054010;28;20683;-75
2023/05/11 07:38:22;;;;;;;9.45;5.05;;;27.40;1.00;;;;;;5052197;28;20191;-75
2023/05/11 07:40:48;;;;;;;10.15;4.88;;;27.50;1.00;;;;;;5064190;28;20648;-71
2023/05/11 07:43:14;;;;;;;8.93;4.85;;;26.70;99.90;;;;;;5073864;28;20295;-72
2023/05/11 07:45:40;;;;;;;8.45;4.57;;;25.20;99.90;;;;;;5073380;28;20196;-71
2023/05/11 07:48:06;;;;;;;10.07;5.15;;;22.80;1.00;;;;;;5072818;28;20259;-71
2023/05/11 07:50:32;;;;;;;8.52;5.00;;;22.10;1.00;;;;;;5073230;28;20164;-72
2023/05/11 07:52:57;;;;;;;8.73;4.60;;;22.30;99.90;;;;;;5064836;28;20187;-72
2023/05/11 07:55:29;;;;;;;9.10;4.53;;;21.90;1.00;;;;;;5057098;28;20656;-72
2023/05/11 07:57:55;;;;;;;9.38;4.90;;;21.80;6.60;;;;;;5074047;28;20257;-71
2023/05/11 08:00:21;;;;;;;6.63;4.28;;;22.70;1.00;;;;;;5056090;28;20605;-73
2023/05/11 08:02:46;;;;;;;7.32;4.32;;;23.40;1.00;;;;;;5064233;28;20234;-71
2023/05/11 08:05:12;;;;;;;7.55;4.00;;;24.80;99.90;;;;;;5060614;28;20275;-74
2023/05/11 08:07:38;;;;;;;7.60;4.60;;;24.50;1.00;;;;;;5071475;28;20259;-73
2023/05/11 08:10:04;;;;;;;7.55;4.57;;;24.90;1.00;;;;;;5073335;28;20172;-71
2023/05/11 08:12:29;;;;;;;6.43;4.40;;;24.90;1.00;;;;;;5072591;28;20176;-72
2023/05/11 08:14:55;;;;;;;5.22;3.90;;;24.10;99.90;;;;;;5072225;28;20230;-73
2023/05/11 08:17:21;;;;;;;10.75;4.60;;;24.10;1.00;;;;;;5073489;28;20225;-72
2023/05/11 08:19:46;;;;;;;8.77;4.40;;;25.10;1.00;;;;;;5073455;28;20224;-72
2023/05/11 08:22:12;;;;;;;7.43;4.15;;;24.80;1.00;;;;;;5073862;28;20198;-71
2023/05/11 08:24:37;;;;;;;8.23;4.18;;;24.30;99.90;;;;;;5074023;28;20177;-71
2023/05/11 08:27:03;;;;;;;6.53;4.13;;;24.90;99.90;;;;;;5073797;28;20165;-71
2023/05/11 08:29:29;;;;;;;4.18;3.38;;;26.60;99.90;;;;;;5073616;28;20184;-72
2023/05/11 08:31:55;;;;;;;8.30;3.35;;;25.70;99.90;;;;;;5072430;28;20168;-72
2023/05/11 08:34:21;;;;;;;8.98;3.78;;;24.50;99.90;;;;;;5072477;28;20176;-72
2023/05/11 08:36:47;;;;;;;12.07;4.10;;;23.60;1.00;;;;;;5073530;28;20208;-73
2023/05/11 08:39:14;;;;;;;7.13;3.78;;;23.90;1.00;;;;;;5073128;28;20207;-74
2023/05/11 08:41:39;;;;;;;5.90;3.40;;;24.90;1.00;;;;;;5073394;28;20226;-73
2023/05/11 08:44:06;;;;;;;8.23;3.67;;;25.80;1.00;;;;;;5073098;28;20591;-73
2023/05/11 08:46:34;;;;;;;8.30;4.15;;;25.90;99.90;;;;;;5073293;28;20678;-73
2023/05/11 08:49:00;;;;;;;6.82;4.10;;;24.70;99.90;;;;;;5071934;28;20250;-72
2023/05/11 08:51:27;;;;;;;6.30;4.20;;;23.90;36.20;;;;;;5072101;28;20610;-71
2023/05/11 08:53:55;;;;;;;7.47;4.25;;;23.70;1.00;;;;;;5072104;28;20168;-73
2023/05/11 08:56:21;;;;;;;10.50;4.40;;;23.10;99.90;;;;;;5062255;28;20205;-74
2023/05/11 08:58:48;;;;;;;5.43;3.95;;;22.90;23.80;;;;;;5063045;28;20526;-71
2023/05/11 09:01:16;;;;;;;7.28;4.22;;;22.30;1.00;;;;;;5068587;28;20245;-72
2023/05/11 09:03:43;;;;;;;10.20;4.68;;;22.10;41.70;;;;;;5068569;28;20169;-73
2023/05/11 09:06:09;;;;;;;6.03;4.13;;;21.50;1.00;;;;;;5072822;28;20182;-72
2023/05/11 09:08:37;;;;;;;6.72;4.47;;;20.90;99.90;;;;;;5071737;28;20523;-71
2023/05/11 09:11:03;;;;;;;7.28;4.00;;;20.60;1.00;;;;;;5072255;28;20247;-71
2023/05/11 09:13:30;;;;;;;10.45;4.65;;;20.60;1.00;;;;;;5045934;28;20723;-71
2023/05/11 09:15:56;;;;;;;6.28;4.40;;;21.30;99.90;;;;;;5071572;28;20241;-71
2023/05/11 09:18:22;;;;;;;8.13;4.30;;;21.40;99.90;;;;;;5070776;28;20169;-70
2023/05/11 09:20:49;;;;;;;7.75;4.28;;;20.80;99.90;;;;;;5055913;28;20674;-71
2023/05/11 09:23:16;;;;;;;8.75;4.30;;;20.90;1.00;;;;;;5061436;28;20181;-72
2023/05/11 09:25:42;;;;;;;8.07;4.90;;;20.30;1.00;;;;;;5062651;28;20319;-70
2023/05/11 09:28:10;;;;;;;6.97;4.35;;;20.00;1.00;;;;;;5055833;28;20822;-71
2023/05/11 09:30:36;;;;;;;9.25;4.20;;;19.90;1.00;;;;;;5060782;28;20184;-71
2023/05/11 09:33:02;;;;;;;7.28;4.13;;;20.20;1.00;;;;;;5071517;28;20180;-71
2023/05/11 09:35:32;;;;;;;6.30;4.53;;;20.30;1.00;;;;;;5053583;28;20290;-72
2023/05/11 09:38:08;;;;;;;9.05;4.25;;;20.80;1.00;;;;;;5071091;28;20187;-72
2023/05/11 09:40:43;;;;;;;9.30;3.97;;;22.30;1.00;;;;;;5071637;28;20176;-71
2023/05/11 09:43:26;;;;;;;9.98;4.50;;;22.90;1.00;;;;;;5070771;28;20654;-73
2023/05/11 09:46:00;;;;;;;7.82;4.43;;;23.30;99.90;;;;;;5056424;28;20230;-72
2023/05/11 09:48:36;;;;;;;9.75;4.43;;;22.80;1.00;;;;;;5070604;28;20177;-73
2023/05/11 09:51:06;;;;;;;7.97;4.18;;;22.50;1.00;;;;;;5053086;28;20164;-73
2023/05/11 09:53:43;;;;;;;6.72;3.97;;;22.60;99.90;;;;;;5071842;28;20671;-73
2023/05/11 09:56:09;;;;;;;13.25;4.22;;;24.00;1.00;;;;;;5071144;28;20192;-71
2023/05/11 09:58:46;;;;;;;5.90;4.07;;;23.60;99.90;;;;;;5070592;28;20225;-73
2023/05/11 10:01:12;;;;;;;8.00;4.95;;;23.40;1.00;;;;;;5068948;28;20720;-73
2023/05/11 10:03:52;;;;;;;8.45;4.00;;;23.20;1.00;;;;;;5070867;28;20199;-71
2023/05/11 10:06:18;;;;;;;9.48;4.15;;;22.30;1.00;;;;;;5071361;28;20176;-73
2023/05/11 10:08:44;;;;;;;5.78;3.90;;;22.40;1.00;;;;;;5070791;28;20172;-73
2023/05/11 10:11:10;;;;;;;6.72;4.00;;;22.80;1.00;;;;;;5062951;28;20253;-70
2023/05/11 10:13:36;;;;;;;5.68;3.88;;;22.70;99.90;;;;;;5060572;28;20665;-72
2023/05/11 10:16:03;;;;;;;6.93;4.35;;;23.00;99.90;;;;;;5067467;28;20208;-72
2023/05/11 10:18:31;;;;;;;7.40;4.20;;;23.10;1.00;;;;;;5063029;28;20181;-73
2023/05/11 10:20:57;;;;;;;5.35;3.63;;;24.20;99.90;;;;;;5065119;28;20625;-72
2023/05/11 10:23:27;;;;;;;7.35;4.47;;;24.80;99.90;;;;;;5060941;28;20169;-70
2023/05/11 10:25:53;;;;;;;4.95;4.07;;;23.90;99.90;;;;;;5071090;28;20179;-72
2023/05/11 10:28:21;;;;;;;7.90;4.45;;;23.80;99.90;;;;;;5066890;28;20165;-71
2023/05/11 10:30:47;;;;;;;5.30;3.75;;;23.80;99.90;;;;;;5070723;28;20192;-72
2023/05/11 10:33:13;;;;;;;7.80;4.40;;;23.80;1.00;;;;;;5070701;28;20255;-71
2023/05/11 10:35:39;;;;;;;6.15;4.22;;;23.90;26.70;;;;;;5064617;28;20200;-71
2023/05/11 10:38:06;;;;;;;8.52;4.80;;;23.80;99.90;;;;;;5070504;28;20820;-73
2023/05/11 10:40:41;;;;;;;8.18;4.30;;;23.30;1.00;;;;;;5052436;28;20483;-71
2023/05/11 10:43:46;;;;;;;9.82;4.57;;;23.60;1.00;;;;;;5070758;28;20218;-72
2023/05/11 10:46:34;;;;;;;6.68;4.15;;;23.90;1.00;;;;;;5070218;28;20180;-71
2023/05/11 10:49:28;;;;;;;6.00;4.65;;;24.40;1.00;;;;;;5063972;28;20176;-73
2023/05/11 10:52:15;;;;;;;5.38;3.90;;;24.60;1.00;;;;;;5070892;28;20183;-74
2023/05/11 10:55:06;;;;;;;7.72;4.00;;;25.90;99.90;;;;;;5069888;28;20161;-72
2023/05/11 10:57:40;;;;;;;4.57;3.80;;;25.80;1.00;;;;;;5070810;28;20207;-72
2023/05/11 11:00:18;;;;;;;6.38;4.70;;;24.90;1.00;;;;;;5070979;28;20183;-72
2023/05/11 11:02:44;;;;;;;6.93;3.80;;;25.60;99.90;;;;;;5052241;28;20207;-71
2023/05/11 11:05:14;;;;;;;6.40;3.90;;;26.20;1.00;;;;;;5069989;28;20181;-72
2023/05/11 11:07:57;;;;;;;4.97;3.50;;;25.50;1.00;;;;;;5070961;28;20164;-72
2023/05/11 11:10:31;;;;;;;8.52;3.80;;;24.30;1.00;;;;;;5057192;28;20252;-71
2023/05/11 11:13:07;;;;;;;5.00;4.50;;;24.20;99.90;;;;;;5068877;28;20180;-72
2023/05/11 11:15:52;;;;;;;7.00;4.55;;;25.10;1.00;;;;;;5070411;28;20199;-73
2023/05/11 11:18:24;;;;;;;7.82;4.25;;;25.40;99.90;;;;;;5070419;28;20184;-73
2023/05/11 11:20:52;;;;;;;5.65;3.80;;;25.20;99.90;;;;;;5070834;28;20224;-72
2023/05/11 11:23:40;;;;;;;5.85;3.85;;;25.10;1.00;;;;;;5074956;28;20165;-72
2023/05/11 11:26:11;;;;;;;5.88;3.83;;;26.80;1.00;;;;;;5073186;28;20596;-71
2023/05/11 11:29:03;;;;;;;4.20;3.47;;;27.40;1.00;;;;;;5073349;28;20173;-72
2023/05/11 11:31:31;;;;;;;7.47;4.25;;;26.70;1.00;;;;;;5074177;28;20248;-73
2023/05/11 11:33:59;;;;;;;4.20;3.80;;;26.20;99.90;;;;;;5074605;28;20169;-73
2023/05/11 11:36:53;;;;;;;5.03;3.58;;;25.00;17.40;;;;;;5070723;28;20205;-72
2023/05/11 11:39:24;;;;;;;7.22;3.78;;;25.70;59.60;;;;;;5074326;28;20670;-77
2023/05/11 11:42:06;;;;;;;5.15;3.47;;;25.10;99.90;;;;;;5055634;28;20171;-74
2023/05/11 11:44:35;;;;;;;6.68;3.80;;;24.90;1.00;;;;;;5073365;28;20195;-74
2023/05/11 11:47:18;;;;;;;5.90;4.10;;;24.50;1.00;;;;;;5074550;28;20164;-74
2023/05/11 11:49:52;;;;;;;8.85;3.90;;;24.30;99.90;;;;;;5071705;28;20172;-74
2023/05/11 11:52:29;;;;;;;4.05;3.35;;;24.30;1.00;;;;;;5074384;28;20611;-72
2023/05/11 11:54:59;;;;;;;7.93;4.10;;;23.60;1.00;;;;;;5073755;28;20499;-72
2023/05/11 11:57:34;;;;;;;8.80;4.18;;;22.90;1.00;;;;;;5073668;28;20199;-74
2023/05/11 12:00:09;;;;;;;6.57;3.90;;;23.00;1.00;;;;;;5073580;28;20186;-73
2023/05/11 12:02:42;;;;;;;6.93;4.03;;;23.10;1.00;;;;;;5055678;28;20169;-74
2023/05/11 12:05:16;;;;;;;4.95;4.00;;;23.00;99.90;;;;;;5070228;28;20673;-72
2023/05/11 12:07:44;;;;;;;7.60;3.90;;;22.80;1.00;;;;;;5072717;28;20569;-71
2023/05/11 12:10:17;;;;;;;6.32;4.05;;;23.20;1.00;;;;;;5072643;28;20169;-70
2023/05/11 12:12:47;;;;;;;7.53;4.32;;;22.90;1.00;;;;;;5072570;28;20181;-71
2023/05/11 12:15:31;;;;;;;5.82;3.88;;;22.40;1.00;;;;;;5073344;28;20196;-70
2023/05/11 12:17:57;;;;;;;8.80;4.15;;;22.20;1.00;;;;;;5073221;28;20171;-70
2023/05/11 12:20:23;;;;;;;4.60;4.07;;;22.10;99.90;;;;;;5057370;28;20261;-71
2023/05/11 12:22:49;;;;;;;8.38;4.80;;;22.40;1.00;;;;;;5072631;28;20179;-70
2023/05/11 12:25:19;;;;;;;9.85;4.80;;;22.10;1.00;;;;;;5071941;28;20169;-72
2023/05/11 12:27:57;;;;;;;5.50;4.05;;;22.10;99.90;;;;;;5073383;28;20289;-72
2023/05/11 12:30:25;;;;;;;7.30;3.97;;;22.20;1.00;;;;;;5072832;28;20504;-72
2023/05/11 12:32:52;;;;;;;6.45;4.45;;;22.70;99.90;;;;;;5068772;28;20169;-72
2023/05/11 12:35:28;;;;;;;7.60;4.70;;;21.90;99.90;;;;;;5066489;28;20192;-71
2023/05/11 12:37:56;;;;;;;8.13;4.18;;;21.10;1.00;;;;;;5072834;28;20179;-73
2023/05/11 12:40:21;;;;;;;7.20;3.97;;;21.50;1.00;;;;;;5071978;28;20627;-72
2023/05/11 12:42:58;;;;;;;10.70;5.85;;;22.00;99.90;;;;;;5072673;28;20172;-73
2023/05/11 12:45:28;;;;;;;7.93;4.72;;;21.90;99.90;;;;;;5071351;28;20226;-71
2023/05/11 12:47:55;;;;;;;9.27;5.72;;;22.10;1.00;;;;;;5073030;28;20176;-73
2023/05/11 12:50:22;;;;;;;11.88;6.13;;;22.00;1.00;;;;;;5074622;28;20203;-74